sensor_id;sensor_type;location;lat;lon;timestamp;temperature;humidity
21495;DHT22;10909;53.590;10.054;2022-10-16T00:01:25;18.00;72.20
21495;DHT22;10909;53.590;10.054;2022-10-16T00:03:51;18.00;72.20
21495;DHT22;10909;53.590;10.054;2022-10-16T00:06:19;18.00;72.20
21495;DHT22;10909;53.590;10.054;2022-10-16T00:08:45;18.00;72.20
21495;DHT22;10909;53.590;10.054;2022-10-16T00:11:16;18.00;72.20
21495;DHT22;10909;53.590;10.054;2022-10-16T00:13:44;18.00;72.20
21495;DHT22;10909;53.590;10.054;2022-10-16T00:16:11;18.00;72.10
21495;DHT22;10909;53.590;10.054;2022-10-16T00:18:38;18.00;72.10
21495;DHT22;10909;53.590;10.054;2022-10-16T00:21:09;17.90;72.00
21495;DHT22;10909;53.590;10.054;2022-10-16T00:23:36;18.00;72.00
21495;DHT22;10909;53.590;10.054;2022-10-16T00:26:05;17.90;71.90
21495;DHT22;10909;53.590;10.054;2022-10-16T00:28:31;18.00;72.00
21495;DHT22;10909;53.590;10.054;2022-10-16T00:30:57;17.90;71.80
21495;DHT22;10909;53.590;10.054;2022-10-16T00:33:23;17.90;71.80
21495;DHT22;10909;53.590;10.054;2022-10-16T00:35:49;17.90;71.70
21495;DHT22;10909;53.590;10.054;2022-10-16T00:38:15;17.90;71.60
21495;DHT22;10909;53.590;10.054;2022-10-16T00:40:41;17.90;71.50
21495;DHT22;10909;53.590;10.054;2022-10-16T00:43:32;17.90;71.40
21495;DHT22;10909;53.590;10.054;2022-10-16T00:46:02;18.00;71.40
21495;DHT22;10909;53.590;10.054;2022-10-16T00:48:28;17.90;71.20
21495;DHT22;10909;53.590;10.054;2022-10-16T00:50:54;18.00;71.20
21495;DHT22;10909;53.590;10.054;2022-10-16T00:53:21;18.00;71.10
21495;DHT22;10909;53.590;10.054;2022-10-16T00:55:47;17.90;71.00
21495;DHT22;10909;53.590;10.054;2022-10-16T00:58:13;18.00;71.00
21495;DHT22;10909;53.590;10.054;2022-10-16T01:00:39;18.00;70.90
21495;DHT22;10909;53.590;10.054;2022-10-16T01:03:30;18.00;70.90
21495;DHT22;10909;53.590;10.054;2022-10-16T01:11:20;18.00;70.30
21495;DHT22;10909;53.590;10.054;2022-10-16T01:13:52;18.00;70.20
21495;DHT22;10909;53.590;10.054;2022-10-16T01:17:33;18.00;70.10
21495;DHT22;10909;53.590;10.054;2022-10-16T01:21:57;18.00;70.00
21495;DHT22;10909;53.590;10.054;2022-10-16T01:29:54;17.90;69.50
21495;DHT22;10909;53.590;10.054;2022-10-16T01:32:41;18.00;69.60
21495;DHT22;10909;53.590;10.054;2022-10-16T01:35:32;17.90;69.40
21495;DHT22;10909;53.590;10.054;2022-10-16T01:40:42;17.90;69.30
21495;DHT22;10909;53.590;10.054;2022-10-16T01:43:16;17.90;69.30
21495;DHT22;10909;53.590;10.054;2022-10-16T01:45:44;17.80;69.20
21495;DHT22;10909;53.590;10.054;2022-10-16T01:48:12;17.80;69.30
21495;DHT22;10909;53.590;10.054;2022-10-16T01:50:41;17.80;69.30
21495;DHT22;10909;53.590;10.054;2022-10-16T01:53:11;17.70;69.20
21495;DHT22;10909;53.590;10.054;2022-10-16T01:55:41;17.70;69.20
21495;DHT22;10909;53.590;10.054;2022-10-16T01:58:11;17.70;69.20
21495;DHT22;10909;53.590;10.054;2022-10-16T02:00:40;17.70;69.30
21495;DHT22;10909;53.590;10.054;2022-10-16T02:03:07;17.70;69.40
21495;DHT22;10909;53.590;10.054;2022-10-16T02:05:51;17.60;69.30
21495;DHT22;10909;53.590;10.054;2022-10-16T02:08:18;17.60;69.40
21495;DHT22;10909;53.590;10.054;2022-10-16T02:10:45;17.60;69.40
21495;DHT22;10909;53.590;10.054;2022-10-16T02:13:26;17.60;69.40
21495;DHT22;10909;53.590;10.054;2022-10-16T02:15:52;17.60;70.20
21495;DHT22;10909;53.590;10.054;2022-10-16T02:18:18;17.60;70.20
21495;DHT22;10909;53.590;10.054;2022-10-16T02:23:36;17.50;69.30
21495;DHT22;10909;53.590;10.054;2022-10-16T02:26:04;17.50;69.20
21495;DHT22;10909;53.590;10.054;2022-10-16T02:28:42;17.50;69.30
21495;DHT22;10909;53.590;10.054;2022-10-16T02:31:13;17.50;69.40
21495;DHT22;10909;53.590;10.054;2022-10-16T02:33:42;17.40;69.30
21495;DHT22;10909;53.590;10.054;2022-10-16T02:36:09;17.40;69.30
21495;DHT22;10909;53.590;10.054;2022-10-16T02:38:35;17.40;69.30
21495;DHT22;10909;53.590;10.054;2022-10-16T02:41:02;17.30;69.30
21495;DHT22;10909;53.590;10.054;2022-10-16T02:43:28;17.30;69.30
21495;DHT22;10909;53.590;10.054;2022-10-16T02:45:54;17.30;69.30
21495;DHT22;10909;53.590;10.054;2022-10-16T02:48:19;17.30;69.30
21495;DHT22;10909;53.590;10.054;2022-10-16T02:50:45;17.30;69.40
21495;DHT22;10909;53.590;10.054;2022-10-16T02:53:10;17.20;69.30
21495;DHT22;10909;53.590;10.054;2022-10-16T02:55:36;17.20;69.40
21495;DHT22;10909;53.590;10.054;2022-10-16T02:58:02;17.20;69.40
21495;DHT22;10909;53.590;10.054;2022-10-16T03:00:27;17.10;69.40
21495;DHT22;10909;53.590;10.054;2022-10-16T03:02:54;17.10;69.40
21495;DHT22;10909;53.590;10.054;2022-10-16T03:05:19;17.10;69.40
21495;DHT22;10909;53.590;10.054;2022-10-16T03:07:45;17.00;69.40
21495;DHT22;10909;53.590;10.054;2022-10-16T03:10:10;17.00;69.40
21495;DHT22;10909;53.590;10.054;2022-10-16T03:12:36;17.00;69.50
21495;DHT22;10909;53.590;10.054;2022-10-16T03:15:02;17.00;69.50
21495;DHT22;10909;53.590;10.054;2022-10-16T03:17:34;16.90;69.50
21495;DHT22;10909;53.590;10.054;2022-10-16T03:20:00;16.90;69.50
21495;DHT22;10909;53.590;10.054;2022-10-16T03:22:25;16.90;69.60
21495;DHT22;10909;53.590;10.054;2022-10-16T03:24:51;16.80;69.70
21495;DHT22;10909;53.590;10.054;2022-10-16T03:27:16;16.80;69.70
21495;DHT22;10909;53.590;10.054;2022-10-16T03:29:42;16.80;69.80
21495;DHT22;10909;53.590;10.054;2022-10-16T03:32:07;16.70;69.80
21495;DHT22;10909;53.590;10.054;2022-10-16T03:34:33;16.70;69.80
21495;DHT22;10909;53.590;10.054;2022-10-16T03:36:59;16.70;69.90
21495;DHT22;10909;53.590;10.054;2022-10-16T03:39:24;16.70;69.90
21495;DHT22;10909;53.590;10.054;2022-10-16T03:41:50;16.60;69.80
21495;DHT22;10909;53.590;10.054;2022-10-16T03:44:16;16.60;70.00
21495;DHT22;10909;53.590;10.054;2022-10-16T03:46:41;16.60;70.00
21495;DHT22;10909;53.590;10.054;2022-10-16T03:49:07;16.60;70.10
21495;DHT22;10909;53.590;10.054;2022-10-16T03:51:33;16.60;70.10
21495;DHT22;10909;53.590;10.054;2022-10-16T03:53:58;16.60;70.20
21495;DHT22;10909;53.590;10.054;2022-10-16T03:56:24;16.60;70.30
21495;DHT22;10909;53.590;10.054;2022-10-16T03:58:50;16.60;70.30
21495;DHT22;10909;53.590;10.054;2022-10-16T04:01:15;16.60;70.30
21495;DHT22;10909;53.590;10.054;2022-10-16T04:03:41;16.50;70.20
21495;DHT22;10909;53.590;10.054;2022-10-16T04:06:06;16.50;70.20
21495;DHT22;10909;53.590;10.054;2022-10-16T04:08:32;16.50;70.30
21495;DHT22;10909;53.590;10.054;2022-10-16T04:11:00;16.50;70.30
21495;DHT22;10909;53.590;10.054;2022-10-16T04:13:26;16.50;70.30
21495;DHT22;10909;53.590;10.054;2022-10-16T04:15:52;16.40;70.20
21495;DHT22;10909;53.590;10.054;2022-10-16T04:18:17;16.40;70.30
21495;DHT22;10909;53.590;10.054;2022-10-16T04:20:43;16.40;70.30
21495;DHT22;10909;53.590;10.054;2022-10-16T04:23:09;16.40;70.40
21495;DHT22;10909;53.590;10.054;2022-10-16T04:25:34;16.40;70.40
21495;DHT22;10909;53.590;10.054;2022-10-16T04:28:00;16.40;70.50
21495;DHT22;10909;53.590;10.054;2022-10-16T04:30:26;16.40;70.50
21495;DHT22;10909;53.590;10.054;2022-10-16T04:32:52;16.40;70.60
21495;DHT22;10909;53.590;10.054;2022-10-16T04:35:19;16.40;70.60
21495;DHT22;10909;53.590;10.054;2022-10-16T04:37:45;16.40;70.60
21495;DHT22;10909;53.590;10.054;2022-10-16T04:40:11;16.40;70.60
21495;DHT22;10909;53.590;10.054;2022-10-16T04:42:37;16.40;70.60
21495;DHT22;10909;53.590;10.054;2022-10-16T04:45:04;16.40;70.60
21495;DHT22;10909;53.590;10.054;2022-10-16T04:47:30;16.40;70.50
21495;DHT22;10909;53.590;10.054;2022-10-16T04:49:56;16.40;70.60
21495;DHT22;10909;53.590;10.054;2022-10-16T04:52:22;16.40;70.60
21495;DHT22;10909;53.590;10.054;2022-10-16T04:54:50;16.30;70.50
21495;DHT22;10909;53.590;10.054;2022-10-16T04:57:16;16.30;70.60
21495;DHT22;10909;53.590;10.054;2022-10-16T04:59:42;16.20;70.50
21495;DHT22;10909;53.590;10.054;2022-10-16T05:02:08;16.20;70.50
21495;DHT22;10909;53.590;10.054;2022-10-16T05:04:33;16.20;70.60
21495;DHT22;10909;53.590;10.054;2022-10-16T05:06:59;16.20;70.60
21495;DHT22;10909;53.590;10.054;2022-10-16T05:09:25;16.20;70.70
21495;DHT22;10909;53.590;10.054;2022-10-16T05:11:50;16.30;70.80
21495;DHT22;10909;53.590;10.054;2022-10-16T05:14:16;16.20;70.80
21495;DHT22;10909;53.590;10.054;2022-10-16T05:16:42;16.20;70.80
21495;DHT22;10909;53.590;10.054;2022-10-16T05:19:07;16.20;70.80
21495;DHT22;10909;53.590;10.054;2022-10-16T05:21:33;16.10;70.80
21495;DHT22;10909;53.590;10.054;2022-10-16T05:23:59;16.20;70.90
21495;DHT22;10909;53.590;10.054;2022-10-16T05:26:24;16.20;71.00
21495;DHT22;10909;53.590;10.054;2022-10-16T05:28:50;16.20;71.00
21495;DHT22;10909;53.590;10.054;2022-10-16T05:31:15;16.10;70.90
21495;DHT22;10909;53.590;10.054;2022-10-16T05:33:41;16.10;70.90
21495;DHT22;10909;53.590;10.054;2022-10-16T05:36:09;16.10;71.00
21495;DHT22;10909;53.590;10.054;2022-10-16T05:38:35;16.10;71.00
21495;DHT22;10909;53.590;10.054;2022-10-16T05:41:02;16.10;71.00
21495;DHT22;10909;53.590;10.054;2022-10-16T05:43:29;16.10;71.10
21495;DHT22;10909;53.590;10.054;2022-10-16T05:46:00;16.10;71.30
21495;DHT22;10909;53.590;10.054;2022-10-16T05:48:27;16.10;71.40
21495;DHT22;10909;53.590;10.054;2022-10-16T05:51:00;16.10;71.40
21495;DHT22;10909;53.590;10.054;2022-10-16T05:53:28;16.00;71.40
21495;DHT22;10909;53.590;10.054;2022-10-16T05:55:55;16.00;71.40
21495;DHT22;10909;53.590;10.054;2022-10-16T05:58:21;16.00;71.50
21495;DHT22;10909;53.590;10.054;2022-10-16T06:01:01;16.10;71.60
21495;DHT22;10909;53.590;10.054;2022-10-16T06:03:34;16.10;71.90
21495;DHT22;10909;53.590;10.054;2022-10-16T06:06:07;16.00;71.70
21495;DHT22;10909;53.590;10.054;2022-10-16T06:08:33;16.10;72.00
21495;DHT22;10909;53.590;10.054;2022-10-16T06:11:03;16.10;71.90
21495;DHT22;10909;53.590;10.054;2022-10-16T06:13:29;16.10;72.10
21495;DHT22;10909;53.590;10.054;2022-10-16T06:15:57;16.10;72.00
21495;DHT22;10909;53.590;10.054;2022-10-16T06:18:24;16.20;72.20
21495;DHT22;10909;53.590;10.054;2022-10-16T06:20:49;16.20;72.10
21495;DHT22;10909;53.590;10.054;2022-10-16T06:23:15;16.20;72.00
21495;DHT22;10909;53.590;10.054;2022-10-16T06:25:40;16.20;71.90
21495;DHT22;10909;53.590;10.054;2022-10-16T06:28:06;16.20;71.90
21495;DHT22;10909;53.590;10.054;2022-10-16T06:30:32;16.20;71.80
21495;DHT22;10909;53.590;10.054;2022-10-16T06:32:57;16.20;71.80
21495;DHT22;10909;53.590;10.054;2022-10-16T06:35:23;16.20;71.80
21495;DHT22;10909;53.590;10.054;2022-10-16T06:37:49;16.20;71.80
21495;DHT22;10909;53.590;10.054;2022-10-16T06:40:15;16.20;71.90
21495;DHT22;10909;53.590;10.054;2022-10-16T06:42:41;16.10;71.90
21495;DHT22;10909;53.590;10.054;2022-10-16T06:45:07;16.10;72.00
21495;DHT22;10909;53.590;10.054;2022-10-16T06:47:33;16.10;72.10
21495;DHT22;10909;53.590;10.054;2022-10-16T06:49:58;16.10;72.20
21495;DHT22;10909;53.590;10.054;2022-10-16T06:52:24;16.10;72.20
21495;DHT22;10909;53.590;10.054;2022-10-16T06:54:50;16.10;72.30
21495;DHT22;10909;53.590;10.054;2022-10-16T06:57:16;16.10;72.40
21495;DHT22;10909;53.590;10.054;2022-10-16T06:59:41;16.10;72.50
21495;DHT22;10909;53.590;10.054;2022-10-16T07:02:08;16.10;72.50
21495;DHT22;10909;53.590;10.054;2022-10-16T07:04:35;16.20;72.70
21495;DHT22;10909;53.590;10.054;2022-10-16T07:07:01;16.20;72.90
21495;DHT22;10909;53.590;10.054;2022-10-16T07:09:27;16.20;73.00
21495;DHT22;10909;53.590;10.054;2022-10-16T07:11:53;16.30;73.20
21495;DHT22;10909;53.590;10.054;2022-10-16T07:14:20;16.30;73.30
21495;DHT22;10909;53.590;10.054;2022-10-16T07:16:46;16.40;73.40
21495;DHT22;10909;53.590;10.054;2022-10-16T07:19:13;16.40;73.50
21495;DHT22;10909;53.590;10.054;2022-10-16T07:21:40;16.50;73.60
21495;DHT22;10909;53.590;10.054;2022-10-16T07:24:11;16.60;73.60
21495;DHT22;10909;53.590;10.054;2022-10-16T07:26:37;16.70;73.70
21495;DHT22;10909;53.590;10.054;2022-10-16T07:29:06;16.70;73.70
21495;DHT22;10909;53.590;10.054;2022-10-16T07:31:32;16.80;73.60
21495;DHT22;10909;53.590;10.054;2022-10-16T07:33:59;16.80;73.40
21495;DHT22;10909;53.590;10.054;2022-10-16T07:36:25;16.80;73.30
21495;DHT22;10909;53.590;10.054;2022-10-16T07:38:51;16.90;73.30
21495;DHT22;10909;53.590;10.054;2022-10-16T07:41:19;16.90;73.30
21495;DHT22;10909;53.590;10.054;2022-10-16T07:43:49;16.90;73.30
21495;DHT22;10909;53.590;10.054;2022-10-16T07:46:15;17.00;73.40
21495;DHT22;10909;53.590;10.054;2022-10-16T07:48:42;17.00;73.30
21495;DHT22;10909;53.590;10.054;2022-10-16T07:51:11;17.10;73.40
21495;DHT22;10909;53.590;10.054;2022-10-16T07:53:37;17.10;73.50
21495;DHT22;10909;53.590;10.054;2022-10-16T07:56:05;17.20;73.60
21495;DHT22;10909;53.590;10.054;2022-10-16T07:58:32;17.30;73.70
21495;DHT22;10909;53.590;10.054;2022-10-16T08:00:58;17.30;73.70
21495;DHT22;10909;53.590;10.054;2022-10-16T08:03:25;17.40;73.70
21495;DHT22;10909;53.590;10.054;2022-10-16T08:05:51;17.40;73.50
21495;DHT22;10909;53.590;10.054;2022-10-16T08:08:17;17.50;73.40
21495;DHT22;10909;53.590;10.054;2022-10-16T08:10:44;17.50;73.30
21495;DHT22;10909;53.590;10.054;2022-10-16T08:13:09;17.60;73.20
21495;DHT22;10909;53.590;10.054;2022-10-16T08:15:35;17.60;72.90
21495;DHT22;10909;53.590;10.054;2022-10-16T08:18:04;17.70;72.90
21495;DHT22;10909;53.590;10.054;2022-10-16T08:20:31;17.70;72.80
21495;DHT22;10909;53.590;10.054;2022-10-16T08:22:58;17.70;72.70
21495;DHT22;10909;53.590;10.054;2022-10-16T08:25:24;17.80;72.70
21495;DHT22;10909;53.590;10.054;2022-10-16T08:27:50;17.80;72.60
21495;DHT22;10909;53.590;10.054;2022-10-16T08:30:17;17.80;72.50
21495;DHT22;10909;53.590;10.054;2022-10-16T08:32:43;17.80;72.50
21495;DHT22;10909;53.590;10.054;2022-10-16T08:35:10;17.80;73.40
21495;DHT22;10909;53.590;10.054;2022-10-16T08:37:37;17.90;72.70
21495;DHT22;10909;53.590;10.054;2022-10-16T08:40:04;17.90;72.60
21495;DHT22;10909;53.590;10.054;2022-10-16T08:45:42;18.10;72.70
21495;DHT22;10909;53.590;10.054;2022-10-16T08:48:35;18.20;72.50
21495;DHT22;10909;53.590;10.054;2022-10-16T08:51:08;18.30;72.20
21495;DHT22;10909;53.590;10.054;2022-10-16T08:53:41;18.30;72.00
21495;DHT22;10909;53.590;10.054;2022-10-16T08:56:08;18.30;71.70
21495;DHT22;10909;53.590;10.054;2022-10-16T08:58:34;18.40;71.60
21495;DHT22;10909;53.590;10.054;2022-10-16T09:01:03;18.40;71.60
21495;DHT22;10909;53.590;10.054;2022-10-16T09:06:47;18.50;71.40
21495;DHT22;10909;53.590;10.054;2022-10-16T09:09:52;18.50;71.40
21495;DHT22;10909;53.590;10.054;2022-10-16T09:12:32;18.60;71.30
21495;DHT22;10909;53.590;10.054;2022-10-16T09:15:22;18.60;71.10
21495;DHT22;10909;53.590;10.054;2022-10-16T09:18:06;18.70;70.90
21495;DHT22;10909;53.590;10.054;2022-10-16T09:20:45;18.70;70.80
21495;DHT22;10909;53.590;10.054;2022-10-16T09:23:35;18.70;70.70
21495;DHT22;10909;53.590;10.054;2022-10-16T09:26:02;18.80;70.50
21495;DHT22;10909;53.590;10.054;2022-10-16T09:28:29;18.80;70.70
21495;DHT22;10909;53.590;10.054;2022-10-16T09:30:54;18.90;70.90
21495;DHT22;10909;53.590;10.054;2022-10-16T09:33:33;18.90;70.70
21495;DHT22;10909;53.590;10.054;2022-10-16T09:36:03;19.00;70.20
21495;DHT22;10909;53.590;10.054;2022-10-16T09:38:34;19.00;70.40
21495;DHT22;10909;53.590;10.054;2022-10-16T09:41:21;19.10;70.20
21495;DHT22;10909;53.590;10.054;2022-10-16T09:43:52;19.20;69.80
21495;DHT22;10909;53.590;10.054;2022-10-16T09:48:50;19.30;69.70
21495;DHT22;10909;53.590;10.054;2022-10-16T09:51:24;19.30;69.30
21495;DHT22;10909;53.590;10.054;2022-10-16T09:53:56;19.40;68.90
21495;DHT22;10909;53.590;10.054;2022-10-16T09:56:28;19.40;69.40
21495;DHT22;10909;53.590;10.054;2022-10-16T09:58:56;19.40;68.60
21495;DHT22;10909;53.590;10.054;2022-10-16T10:01:28;19.50;68.60
21495;DHT22;10909;53.590;10.054;2022-10-16T10:03:57;19.50;68.20
21495;DHT22;10909;53.590;10.054;2022-10-16T10:09:20;19.60;67.80
21495;DHT22;10909;53.590;10.054;2022-10-16T10:11:56;19.60;68.00
21495;DHT22;10909;53.590;10.054;2022-10-16T10:16:51;19.60;67.80
21495;DHT22;10909;53.590;10.054;2022-10-16T10:19:22;19.70;67.70
21495;DHT22;10909;53.590;10.054;2022-10-16T10:21:49;19.70;67.30
21495;DHT22;10909;53.590;10.054;2022-10-16T10:24:17;19.70;67.00
21495;DHT22;10909;53.590;10.054;2022-10-16T10:26:51;19.70;67.10
21495;DHT22;10909;53.590;10.054;2022-10-16T10:29:46;19.70;67.00
21495;DHT22;10909;53.590;10.054;2022-10-16T10:32:47;19.70;67.00
21495;DHT22;10909;53.590;10.054;2022-10-16T10:38:37;19.70;67.00
21495;DHT22;10909;53.590;10.054;2022-10-16T10:41:19;19.80;67.30
21495;DHT22;10909;53.590;10.054;2022-10-16T10:44:06;19.80;66.90
21495;DHT22;10909;53.590;10.054;2022-10-16T10:46:41;19.90;66.80
21495;DHT22;10909;53.590;10.054;2022-10-16T10:57:35;20.20;66.30
21495;DHT22;10909;53.590;10.054;2022-10-16T11:00:08;20.20;65.80
21495;DHT22;10909;53.590;10.054;2022-10-16T11:02:48;20.30;65.80
21495;DHT22;10909;53.590;10.054;2022-10-16T11:05:31;20.30;65.10
21495;DHT22;10909;53.590;10.054;2022-10-16T11:08:06;20.40;64.20
21495;DHT22;10909;53.590;10.054;2022-10-16T11:11:10;20.40;64.30
21495;DHT22;10909;53.590;10.054;2022-10-16T11:16:30;20.40;63.10
21495;DHT22;10909;53.590;10.054;2022-10-16T11:21:28;20.50;63.20
21495;DHT22;10909;53.590;10.054;2022-10-16T11:24:00;20.50;63.30
21495;DHT22;10909;53.590;10.054;2022-10-16T11:26:30;20.50;63.40
21495;DHT22;10909;53.590;10.054;2022-10-16T11:28:59;20.60;62.90
21495;DHT22;10909;53.590;10.054;2022-10-16T11:31:38;20.60;63.00
21495;DHT22;10909;53.590;10.054;2022-10-16T11:39:29;20.70;61.70
21495;DHT22;10909;53.590;10.054;2022-10-16T11:42:07;20.70;61.50
21495;DHT22;10909;53.590;10.054;2022-10-16T11:47:45;20.90;61.90
21495;DHT22;10909;53.590;10.054;2022-10-16T11:50:23;20.90;61.50
21495;DHT22;10909;53.590;10.054;2022-10-16T11:55:34;20.90;60.40
21495;DHT22;10909;53.590;10.054;2022-10-16T12:01:06;21.00;61.20
21495;DHT22;10909;53.590;10.054;2022-10-16T12:06:23;21.00;60.10
21495;DHT22;10909;53.590;10.054;2022-10-16T12:08:52;21.00;60.10
21495;DHT22;10909;53.590;10.054;2022-10-16T12:16:38;21.00;59.70
21495;DHT22;10909;53.590;10.054;2022-10-16T12:19:13;20.90;60.10
21495;DHT22;10909;53.590;10.054;2022-10-16T12:21:39;20.90;59.60
21495;DHT22;10909;53.590;10.054;2022-10-16T12:24:05;20.90;60.10
21495;DHT22;10909;53.590;10.054;2022-10-16T12:26:39;20.90;59.90
21495;DHT22;10909;53.590;10.054;2022-10-16T12:29:23;20.80;59.60
21495;DHT22;10909;53.590;10.054;2022-10-16T12:31:53;20.80;59.50
21495;DHT22;10909;53.590;10.054;2022-10-16T12:36:54;20.80;59.00
21495;DHT22;10909;53.590;10.054;2022-10-16T12:39:24;20.70;59.60
21495;DHT22;10909;53.590;10.054;2022-10-16T12:44:54;20.90;59.60
21495;DHT22;10909;53.590;10.054;2022-10-16T12:47:35;21.20;61.60
21495;DHT22;10909;53.590;10.054;2022-10-16T12:50:01;21.60;62.00
21495;DHT22;10909;53.590;10.054;2022-10-16T12:52:38;22.00;62.10
21495;DHT22;10909;53.590;10.054;2022-10-16T12:55:05;22.50;59.90
21495;DHT22;10909;53.590;10.054;2022-10-16T13:00:28;23.30;58.20
21495;DHT22;10909;53.590;10.054;2022-10-16T13:06:07;24.00;57.40
21495;DHT22;10909;53.590;10.054;2022-10-16T13:14:49;25.00;54.90
21495;DHT22;10909;53.590;10.054;2022-10-16T13:20:58;25.70;52.90
21495;DHT22;10909;53.590;10.054;2022-10-16T13:23:33;26.00;54.60
21495;DHT22;10909;53.590;10.054;2022-10-16T13:26:29;26.30;52.70
21495;DHT22;10909;53.590;10.054;2022-10-16T13:29:01;26.60;51.30
21495;DHT22;10909;53.590;10.054;2022-10-16T13:31:28;26.80;51.60
21495;DHT22;10909;53.590;10.054;2022-10-16T13:33:59;26.90;51.10
21495;DHT22;10909;53.590;10.054;2022-10-16T13:36:33;27.10;50.00
21495;DHT22;10909;53.590;10.054;2022-10-16T13:41:36;27.30;49.70
21495;DHT22;10909;53.590;10.054;2022-10-16T13:44:02;27.40;50.00
21495;DHT22;10909;53.590;10.054;2022-10-16T13:46:28;27.60;50.00
21495;DHT22;10909;53.590;10.054;2022-10-16T13:51:27;27.90;47.80
21495;DHT22;10909;53.590;10.054;2022-10-16T13:53:55;27.90;47.80
21495;DHT22;10909;53.590;10.054;2022-10-16T13:56:25;27.90;47.20
21495;DHT22;10909;53.590;10.054;2022-10-16T13:59:05;27.90;47.00
21495;DHT22;10909;53.590;10.054;2022-10-16T14:01:40;28.00;46.70
21495;DHT22;10909;53.590;10.054;2022-10-16T14:04:09;28.00;47.10
21495;DHT22;10909;53.590;10.054;2022-10-16T14:06:36;28.10;47.40
21495;DHT22;10909;53.590;10.054;2022-10-16T14:12:00;28.30;46.20
21495;DHT22;10909;53.590;10.054;2022-10-16T14:14:35;28.50;45.90
21495;DHT22;10909;53.590;10.054;2022-10-16T14:17:05;28.60;45.70
21495;DHT22;10909;53.590;10.054;2022-10-16T14:19:31;28.60;45.10
21495;DHT22;10909;53.590;10.054;2022-10-16T14:21:58;28.50;44.60
21495;DHT22;10909;53.590;10.054;2022-10-16T14:24:33;28.50;44.50
21495;DHT22;10909;53.590;10.054;2022-10-16T14:27:00;28.50;43.60
21495;DHT22;10909;53.590;10.054;2022-10-16T14:29:27;28.50;44.10
21495;DHT22;10909;53.590;10.054;2022-10-16T14:32:02;28.60;44.20
21495;DHT22;10909;53.590;10.054;2022-10-16T14:34:34;28.50;43.20
21495;DHT22;10909;53.590;10.054;2022-10-16T14:39:41;28.40;43.20
21495;DHT22;10909;53.590;10.054;2022-10-16T14:42:17;28.40;43.30
21495;DHT22;10909;53.590;10.054;2022-10-16T14:44:45;28.20;42.00
21495;DHT22;10909;53.590;10.054;2022-10-16T14:47:16;28.00;42.90
21495;DHT22;10909;53.590;10.054;2022-10-16T14:49:47;28.00;43.00
21495;DHT22;10909;53.590;10.054;2022-10-16T14:52:13;27.90;42.90
21495;DHT22;10909;53.590;10.054;2022-10-16T14:54:40;27.80;43.20
21495;DHT22;10909;53.590;10.054;2022-10-16T14:57:19;27.80;43.30
21495;DHT22;10909;53.590;10.054;2022-10-16T14:59:46;27.70;43.80
21495;DHT22;10909;53.590;10.054;2022-10-16T15:02:33;27.80;43.80
21495;DHT22;10909;53.590;10.054;2022-10-16T15:05:13;27.90;43.30
21495;DHT22;10909;53.590;10.054;2022-10-16T15:07:39;27.90;43.30
21495;DHT22;10909;53.590;10.054;2022-10-16T15:10:05;27.90;42.90
21495;DHT22;10909;53.590;10.054;2022-10-16T15:12:30;27.90;42.60
21495;DHT22;10909;53.590;10.054;2022-10-16T15:14:56;27.60;42.30
21495;DHT22;10909;53.590;10.054;2022-10-16T15:17:21;27.30;42.10
21495;DHT22;10909;53.590;10.054;2022-10-16T15:19:47;27.00;42.10
21495;DHT22;10909;53.590;10.054;2022-10-16T15:22:13;26.70;42.20
21495;DHT22;10909;53.590;10.054;2022-10-16T15:24:38;26.40;42.50
21495;DHT22;10909;53.590;10.054;2022-10-16T15:27:04;26.10;42.60
21495;DHT22;10909;53.590;10.054;2022-10-16T15:29:30;25.80;42.90
21495;DHT22;10909;53.590;10.054;2022-10-16T15:31:56;25.60;43.10
21495;DHT22;10909;53.590;10.054;2022-10-16T15:34:22;25.30;43.40
21495;DHT22;10909;53.590;10.054;2022-10-16T15:36:47;25.00;43.70
21495;DHT22;10909;53.590;10.054;2022-10-16T15:39:15;24.70;43.90
21495;DHT22;10909;53.590;10.054;2022-10-16T15:41:42;24.50;44.20
21495;DHT22;10909;53.590;10.054;2022-10-16T15:44:08;24.30;44.40
21495;DHT22;10909;53.590;10.054;2022-10-16T15:46:34;24.00;44.60
21495;DHT22;10909;53.590;10.054;2022-10-16T15:49:01;23.80;44.70
21495;DHT22;10909;53.590;10.054;2022-10-16T15:51:27;23.60;45.10
21495;DHT22;10909;53.590;10.054;2022-10-16T15:53:56;23.40;45.60
21495;DHT22;10909;53.590;10.054;2022-10-16T15:56:22;23.20;45.70
21495;DHT22;10909;53.590;10.054;2022-10-16T15:58:49;23.00;46.00
21495;DHT22;10909;53.590;10.054;2022-10-16T16:01:15;22.80;46.20
21495;DHT22;10909;53.590;10.054;2022-10-16T16:03:42;22.70;46.50
21495;DHT22;10909;53.590;10.054;2022-10-16T16:06:10;22.60;46.70
21495;DHT22;10909;53.590;10.054;2022-10-16T16:08:37;22.50;46.90
21495;DHT22;10909;53.590;10.054;2022-10-16T16:11:08;22.30;47.40
21495;DHT22;10909;53.590;10.054;2022-10-16T16:13:34;22.20;47.20
21495;DHT22;10909;53.590;10.054;2022-10-16T16:16:05;22.10;47.40
21495;DHT22;10909;53.590;10.054;2022-10-16T16:18:31;22.10;47.60
21495;DHT22;10909;53.590;10.054;2022-10-16T16:20:57;22.00;47.70
21495;DHT22;10909;53.590;10.054;2022-10-16T16:23:22;21.90;47.80
21495;DHT22;10909;53.590;10.054;2022-10-16T16:26:15;21.90;48.00
21495;DHT22;10909;53.590;10.054;2022-10-16T16:28:43;21.80;48.20
21495;DHT22;10909;53.590;10.054;2022-10-16T16:31:09;21.80;48.30
21495;DHT22;10909;53.590;10.054;2022-10-16T16:33:35;21.70;48.40
21495;DHT22;10909;53.590;10.054;2022-10-16T16:36:03;21.70;48.60
21495;DHT22;10909;53.590;10.054;2022-10-16T16:38:29;21.60;48.60
21495;DHT22;10909;53.590;10.054;2022-10-16T16:40:56;21.50;48.70
21495;DHT22;10909;53.590;10.054;2022-10-16T16:43:25;21.50;49.50
21495;DHT22;10909;53.590;10.054;2022-10-16T16:45:51;21.50;48.90
21495;DHT22;10909;53.590;10.054;2022-10-16T16:48:17;21.40;49.00
21495;DHT22;10909;53.590;10.054;2022-10-16T16:50:43;21.30;49.10
21495;DHT22;10909;53.590;10.054;2022-10-16T16:53:08;21.30;49.30
21495;DHT22;10909;53.590;10.054;2022-10-16T16:55:34;21.20;49.50
21495;DHT22;10909;53.590;10.054;2022-10-16T16:58:00;21.20;49.60
21495;DHT22;10909;53.590;10.054;2022-10-16T17:00:28;21.20;49.70
21495;DHT22;10909;53.590;10.054;2022-10-16T17:02:54;21.10;49.80
21495;DHT22;10909;53.590;10.054;2022-10-16T17:05:19;21.10;49.90
21495;DHT22;10909;53.590;10.054;2022-10-16T17:07:45;21.10;50.00
21495;DHT22;10909;53.590;10.054;2022-10-16T17:10:10;21.00;50.10
21495;DHT22;10909;53.590;10.054;2022-10-16T17:12:37;20.90;50.20